sensor_id;sensor_type;location;lat;lon;timestamp;pressure;altitude;pressure_sealevel;temperature;humidity
41513;BME280;27244;59.940;30.280;2023-02-04T00:00:01;101331.13;;;23.26;22.40
41513;BME280;27244;59.940;30.280;2023-02-04T00:02:31;101335.53;;;23.27;22.43
41513;BME280;27244;59.940;30.280;2023-02-04T00:05:00;101343.19;;;23.27;22.53
41513;BME280;27244;59.940;30.280;2023-02-04T00:07:27;101351.28;;;23.25;22.66
41513;BME280;27244;59.940;30.280;2023-02-04T00:09:54;101348.88;;;23.23;22.53
41513;BME280;27244;59.940;30.280;2023-02-04T00:12:21;101354.94;;;23.22;22.49
41513;BME280;27244;59.940;30.280;2023-02-04T00:14:48;101357.75;;;23.22;22.67
41513;BME280;27244;59.940;30.280;2023-02-04T00:17:15;101358.19;;;23.20;22.42
41513;BME280;27244;59.940;30.280;2023-02-04T00:19:42;101362.19;;;23.19;22.74
41513;BME280;27244;59.940;30.280;2023-02-04T00:22:10;101361.00;;;23.20;22.48
41513;BME280;27244;59.940;30.280;2023-02-04T00:24:37;101363.44;;;23.18;22.45
41513;BME280;27244;59.940;30.280;2023-02-04T00:27:05;101363.50;;;23.15;22.31
41513;BME280;27244;59.940;30.280;2023-02-04T00:29:32;101354.66;;;23.13;22.52
41513;BME280;27244;59.940;30.280;2023-02-04T00:31:59;101359.56;;;23.09;22.63
41513;BME280;27244;59.940;30.280;2023-02-04T00:34:26;101367.88;;;23.16;22.57
41513;BME280;27244;59.940;30.280;2023-02-04T00:36:53;101369.97;;;23.12;22.53
41513;BME280;27244;59.940;30.280;2023-02-04T00:39:21;101377.19;;;23.13;22.58
41513;BME280;27244;59.940;30.280;2023-02-04T00:41:48;101387.66;;;23.12;22.69
41513;BME280;27244;59.940;30.280;2023-02-04T00:44:15;101384.81;;;23.12;22.61
41513;BME280;27244;59.940;30.280;2023-02-04T00:46:42;101381.25;;;23.08;22.57
41513;BME280;27244;59.940;30.280;2023-02-04T00:49:09;101393.72;;;23.11;22.14
41513;BME280;27244;59.940;30.280;2023-02-04T00:51:37;101391.69;;;23.11;22.38
41513;BME280;27244;59.940;30.280;2023-02-04T00:54:05;101397.38;;;23.08;23.22
41513;BME280;27244;59.940;30.280;2023-02-04T00:56:34;101397.38;;;23.08;23.43
41513;BME280;27244;59.940;30.280;2023-02-04T00:59:01;101399.44;;;23.03;23.87
41513;BME280;27244;59.940;30.280;2023-02-04T01:01:28;101400.66;;;23.02;23.75
41513;BME280;27244;59.940;30.280;2023-02-04T01:03:55;101403.88;;;23.01;23.70
41513;BME280;27244;59.940;30.280;2023-02-04T01:06:22;101408.75;;;23.00;23.81
41513;BME280;27244;59.940;30.280;2023-02-04T01:08:50;101399.16;;;22.94;23.71
41513;BME280;27244;59.940;30.280;2023-02-04T01:11:17;101409.56;;;22.97;23.93
41513;BME280;27244;59.940;30.280;2023-02-04T01:13:45;101404.38;;;22.96;23.69
41513;BME280;27244;59.940;30.280;2023-02-04T01:16:15;101412.81;;;22.96;23.53
41513;BME280;27244;59.940;30.280;2023-02-04T01:18:43;101411.63;;;22.93;23.84
41513;BME280;27244;59.940;30.280;2023-02-04T01:21:10;101402.50;;;22.86;23.82
41513;BME280;27244;59.940;30.280;2023-02-04T01:23:37;101410.50;;;22.87;24.03
41513;BME280;27244;59.940;30.280;2023-02-04T01:26:06;101426.53;;;22.90;23.86
41513;BME280;27244;59.940;30.280;2023-02-04T01:28:33;101425.75;;;22.90;23.96
41513;BME280;27244;59.940;30.280;2023-02-04T01:31:01;101426.53;;;22.90;23.66
41513;BME280;27244;59.940;30.280;2023-02-04T01:33:28;101429.00;;;22.88;23.35
41513;BME280;27244;59.940;30.280;2023-02-04T01:35:55;101427.84;;;22.86;23.93
41513;BME280;27244;59.940;30.280;2023-02-04T01:38:22;101419.50;;;22.79;23.92
41513;BME280;27244;59.940;30.280;2023-02-04T01:40:49;101441.91;;;22.86;23.88
41513;BME280;27244;59.940;30.280;2023-02-04T01:43:16;101433.13;;;22.80;23.73
41513;BME280;27244;59.940;30.280;2023-02-04T01:45:44;101433.97;;;22.77;23.74
41513;BME280;27244;59.940;30.280;2023-02-04T01:48:13;101443.91;;;22.85;23.54
41513;BME280;27244;59.940;30.280;2023-02-04T01:50:45;101439.94;;;22.79;23.48
41513;BME280;27244;59.940;30.280;2023-02-04T01:53:12;101450.75;;;22.84;23.58
41513;BME280;27244;59.940;30.280;2023-02-04T01:55:40;101462.00;;;22.84;23.56
41513;BME280;27244;59.940;30.280;2023-02-04T01:58:09;101456.38;;;22.84;23.56
41513;BME280;27244;59.940;30.280;2023-02-04T02:00:37;101454.00;;;22.79;23.68
41513;BME280;27244;59.940;30.280;2023-02-04T02:03:05;101459.63;;;22.79;23.86
41513;BME280;27244;59.940;30.280;2023-02-04T02:05:38;101467.22;;;22.86;23.47
41513;BME280;27244;59.940;30.280;2023-02-04T02:08:07;101461.28;;;22.77;23.51
41513;BME280;27244;59.940;30.280;2023-02-04T02:10:38;101470.06;;;22.82;23.19
41513;BME280;27244;59.940;30.280;2023-02-04T02:13:09;101464.53;;;22.75;23.32
41513;BME280;27244;59.940;30.280;2023-02-04T02:15:37;101479.72;;;22.81;23.50
41513;BME280;27244;59.940;30.280;2023-02-04T02:18:04;101489.00;;;22.78;23.59
41513;BME280;27244;59.940;30.280;2023-02-04T02:20:32;101485.41;;;22.78;23.46
41513;BME280;27244;59.940;30.280;2023-02-04T02:23:04;101490.53;;;22.83;23.54
41513;BME280;27244;59.940;30.280;2023-02-04T02:25:33;101487.78;;;22.79;23.43
41513;BME280;27244;59.940;30.280;2023-02-04T02:28:05;101487.00;;;22.79;23.31
41513;BME280;27244;59.940;30.280;2023-02-04T02:30:51;101496.50;;;22.88;23.41
41513;BME280;27244;59.940;30.280;2023-02-04T02:33:19;101502.28;;;22.78;23.46
41513;BME280;27244;59.940;30.280;2023-02-04T02:35:47;101499.88;;;22.76;23.46
41513;BME280;27244;59.940;30.280;2023-02-04T02:38:15;101498.28;;;22.75;23.42
41513;BME280;27244;59.940;30.280;2023-02-04T02:40:44;101512.72;;;22.77;23.23
41513;BME280;27244;59.940;30.280;2023-02-04T02:43:13;101518.34;;;22.77;23.31
41513;BME280;27244;59.940;30.280;2023-02-04T02:45:41;101519.19;;;22.74;23.38
41513;BME280;27244;59.940;30.280;2023-02-04T02:48:09;101509.59;;;22.68;23.29
41513;BME280;27244;59.940;30.280;2023-02-04T02:50:37;101522.41;;;22.73;23.17
41513;BME280;27244;59.940;30.280;2023-02-04T02:53:05;101522.41;;;22.73;23.11
41513;BME280;27244;59.940;30.280;2023-02-04T02:55:37;101530.03;;;22.72;23.39
41513;BME280;27244;59.940;30.280;2023-02-04T02:58:09;101536.44;;;22.76;23.23
41513;BME280;27244;59.940;30.280;2023-02-04T03:00:39;101542.94;;;22.70;23.31
41513;BME280;27244;59.940;30.280;2023-02-04T03:03:10;101546.50;;;22.74;23.56
41513;BME280;27244;59.940;30.280;2023-02-04T03:05:41;101550.53;;;22.73;23.18
41513;BME280;27244;59.940;30.280;2023-02-04T03:08:09;101558.59;;;22.71;23.13
41513;BME280;27244;59.940;30.280;2023-02-04T03:10:37;101569.06;;;22.70;23.21
41513;BME280;27244;59.940;30.280;2023-02-04T03:13:06;101558.66;;;22.67;23.12
41513;BME280;27244;59.940;30.280;2023-02-04T03:15:33;101565.44;;;22.66;23.34
41513;BME280;27244;59.940;30.280;2023-02-04T03:18:00;101572.28;;;22.65;23.28
41513;BME280;27244;59.940;30.280;2023-02-04T03:20:29;101570.31;;;22.62;23.37
41513;BME280;27244;59.940;30.280;2023-02-04T03:22:58;101569.53;;;22.58;23.21
41513;BME280;27244;59.940;30.280;2023-02-04T03:25:25;101574.72;;;22.63;23.23
41513;BME280;27244;59.940;30.280;2023-02-04T03:27:53;101581.19;;;22.60;23.14
41513;BME280;27244;59.940;30.280;2023-02-04T03:30:22;101592.75;;;22.66;23.22
41513;BME280;27244;59.940;30.280;2023-02-04T03:32:49;101587.19;;;22.62;23.25
41513;BME280;27244;59.940;30.280;2023-02-04T03:35:17;101588.00;;;22.59;23.05
41513;BME280;27244;59.940;30.280;2023-02-04T03:37:44;101604.06;;;22.62;23.16
41513;BME280;27244;59.940;30.280;2023-02-04T03:40:11;101602.03;;;22.63;23.33
41513;BME280;27244;59.940;30.280;2023-02-04T03:42:39;101609.69;;;22.62;23.14
41513;BME280;27244;59.940;30.280;2023-02-04T03:45:06;101612.47;;;22.62;23.29
41513;BME280;27244;59.940;30.280;2023-02-04T03:47:35;101613.28;;;22.63;23.13
41513;BME280;27244;59.940;30.280;2023-02-04T03:50:02;101610.50;;;22.59;23.11
41513;BME280;27244;59.940;30.280;2023-02-04T03:52:29;101613.69;;;22.61;23.09
41513;BME280;27244;59.940;30.280;2023-02-04T03:54:56;101616.13;;;22.59;23.08
41513;BME280;27244;59.940;30.280;2023-02-04T03:57:23;101618.94;;;22.59;23.16
41513;BME280;27244;59.940;30.280;2023-02-04T03:59:50;101627.00;;;22.57;23.13
41513;BME280;27244;59.940;30.280;2023-02-04T04:02:17;101632.63;;;22.57;23.00
41513;BME280;27244;59.940;30.280;2023-02-04T04:04:46;101641.44;;;22.59;23.02
41513;BME280;27244;59.940;30.280;2023-02-04T04:07:12;101640.63;;;22.58;23.04
41513;BME280;27244;59.940;30.280;2023-02-04T04:09:39;101645.91;;;22.56;23.10
41513;BME280;27244;59.940;30.280;2023-02-04T04:12:06;101655.91;;;22.57;23.17
41513;BME280;27244;59.940;30.280;2023-02-04T04:14:33;101657.13;;;22.56;23.04
41513;BME280;27244;59.940;30.280;2023-02-04T04:17:01;101657.53;;;22.55;23.13
41513;BME280;27244;59.940;30.280;2023-02-04T04:19:28;101660.34;;;22.55;23.19
41513;BME280;27244;59.940;30.280;2023-02-04T04:21:58;101669.59;;;22.55;23.38
41513;BME280;27244;59.940;30.280;2023-02-04T04:24:25;101675.63;;;22.54;22.94
41513;BME280;27244;59.940;30.280;2023-02-04T04:26:52;101674.41;;;22.55;23.10
41513;BME280;27244;59.940;30.280;2023-02-04T04:29:18;101674.03;;;22.53;22.94
41513;BME280;27244;59.940;30.280;2023-02-04T04:31:45;101671.22;;;22.53;22.95
41513;BME280;27244;59.940;30.280;2023-02-04T04:34:12;101680.03;;;22.55;23.07
41513;BME280;27244;59.940;30.280;2023-02-04T04:36:39;101686.09;;;22.53;23.11
41513;BME280;27244;59.940;30.280;2023-02-04T04:39:09;101685.25;;;22.56;22.91
41513;BME280;27244;59.940;30.280;2023-02-04T04:41:36;101685.69;;;22.51;22.98
41513;BME280;27244;59.940;30.280;2023-02-04T04:44:03;101693.31;;;22.51;23.08
41513;BME280;27244;59.940;30.280;2023-02-04T04:46:30;101704.97;;;22.53;22.97
41513;BME280;27244;59.940;30.280;2023-02-04T04:49:00;101705.38;;;22.51;23.12
41513;BME280;27244;59.940;30.280;2023-02-04T04:51:27;101707.38;;;22.51;23.21
41513;BME280;27244;59.940;30.280;2023-02-04T04:53:59;101710.59;;;22.53;22.99
41513;BME280;27244;59.940;30.280;2023-02-04T04:56:27;101718.25;;;22.49;23.27
41513;BME280;27244;59.940;30.280;2023-02-04T04:58:57;101719.84;;;22.53;23.48
41513;BME280;27244;59.940;30.280;2023-02-04T05:01:24;101722.69;;;22.50;23.56
41513;BME280;27244;59.940;30.280;2023-02-04T05:03:51;101723.44;;;22.50;23.45
41513;BME280;27244;59.940;30.280;2023-02-04T05:06:17;101733.91;;;22.50;23.57
41513;BME280;27244;59.940;30.280;2023-02-04T05:08:49;101725.09;;;22.48;23.46
41513;BME280;27244;59.940;30.280;2023-02-04T05:11:16;101734.69;;;22.50;23.39
41513;BME280;27244;59.940;30.280;2023-02-04T05:13:45;101732.69;;;22.51;23.14
41513;BME280;27244;59.940;30.280;2023-02-04T05:16:12;101729.88;;;22.51;22.35
41513;BME280;27244;59.940;30.280;2023-02-04T05:18:39;101736.28;;;22.55;22.32
41513;BME280;27244;59.940;30.280;2023-02-04T05:21:07;101720.25;;;22.48;22.15
41513;BME280;27244;59.940;30.280;2023-02-04T05:23:34;101735.41;;;22.62;22.17
41513;BME280;27244;59.940;30.280;2023-02-04T05:26:01;101739.88;;;22.59;22.14
41513;BME280;27244;59.940;30.280;2023-02-04T05:28:28;101753.88;;;22.66;21.95
41513;BME280;27244;59.940;30.280;2023-02-04T05:30:56;101759.09;;;22.71;21.86
41513;BME280;27244;59.940;30.280;2023-02-04T05:33:24;101761.47;;;22.73;21.86
41513;BME280;27244;59.940;30.280;2023-02-04T05:35:51;101758.66;;;22.76;21.79
41513;BME280;27244;59.940;30.280;2023-02-04T05:38:18;101765.88;;;22.77;21.86
41513;BME280;27244;59.940;30.280;2023-02-04T05:40:45;101772.69;;;22.80;21.81
41513;BME280;27244;59.940;30.280;2023-02-04T05:43:12;101773.13;;;22.78;21.91
41513;BME280;27244;59.940;30.280;2023-02-04T05:45:39;101777.50;;;22.79;21.92
41513;BME280;27244;59.940;30.280;2023-02-04T05:48:07;101764.28;;;22.76;21.80
41513;BME280;27244;59.940;30.280;2023-02-04T05:50:34;101783.53;;;22.81;21.83
41513;BME280;27244;59.940;30.280;2023-02-04T05:53:07;101782.34;;;22.82;21.70
41513;BME280;27244;59.940;30.280;2023-02-04T05:55:34;101778.72;;;22.82;21.70
41513;BME280;27244;59.940;30.280;2023-02-04T05:58:01;101779.91;;;22.81;21.83
41513;BME280;27244;59.940;30.280;2023-02-04T06:00:28;101791.53;;;22.83;21.67
41513;BME280;27244;59.940;30.280;2023-02-04T06:02:55;101797.97;;;22.83;21.86
41513;BME280;27244;59.940;30.280;2023-02-04T06:05:23;101801.19;;;22.85;21.74
41513;BME280;27244;59.940;30.280;2023-02-04T06:07:50;101802.44;;;22.81;21.90
41513;BME280;27244;59.940;30.280;2023-02-04T06:10:17;101814.84;;;22.83;21.80
41513;BME280;27244;59.940;30.280;2023-02-04T06:12:45;101814.84;;;22.83;21.94
41513;BME280;27244;59.940;30.280;2023-02-04T06:15:16;101810.47;;;22.82;21.99
41513;BME280;27244;59.940;30.280;2023-02-04T06:17:43;101806.47;;;22.76;21.90
41513;BME280;27244;59.940;30.280;2023-02-04T06:20:12;101830.16;;;22.82;21.99
41513;BME280;27244;59.940;30.280;2023-02-04T06:22:41;101838.59;;;22.82;21.71
41513;BME280;27244;59.940;30.280;2023-02-04T06:25:08;101838.16;;;22.84;21.87
41513;BME280;27244;59.940;30.280;2023-02-04T06:27:35;101835.75;;;22.86;21.67
41513;BME280;27244;59.940;30.280;2023-02-04T06:30:02;101840.19;;;22.83;21.80
41513;BME280;27244;59.940;30.280;2023-02-04T06:32:31;101844.59;;;22.84;21.90
41513;BME280;27244;59.940;30.280;2023-02-04T06:34:57;101843.78;;;22.84;21.92
41513;BME280;27244;59.940;30.280;2023-02-04T06:37:24;101845.81;;;22.83;21.77
41513;BME280;27244;59.940;30.280;2023-02-04T06:39:53;101847.00;;;22.86;21.66
41513;BME280;27244;59.940;30.280;2023-02-04T06:42:22;101856.66;;;22.85;21.71
41513;BME280;27244;59.940;30.280;2023-02-04T06:44:49;101853.03;;;22.84;21.81
41513;BME280;27244;59.940;30.280;2023-02-04T06:47:16;101867.50;;;22.83;21.84
41513;BME280;27244;59.940;30.280;2023-02-04T06:49:43;101876.75;;;22.83;21.88
41513;BME280;27244;59.940;30.280;2023-02-04T06:52:10;101869.13;;;22.84;21.74
41513;BME280;27244;59.940;30.280;2023-02-04T06:54:37;101869.91;;;22.84;21.60
41513;BME280;27244;59.940;30.280;2023-02-04T06:57:06;101867.94;;;22.78;21.79
41513;BME280;27244;59.940;30.280;2023-02-04T06:59:33;101881.16;;;22.84;21.73
41513;BME280;27244;59.940;30.280;2023-02-04T07:02:00;101885.19;;;22.83;21.68
41513;BME280;27244;59.940;30.280;2023-02-04T07:04:27;101891.63;;;22.84;21.69
41513;BME280;27244;59.940;30.280;2023-02-04T07:06:54;101895.25;;;22.84;21.64
41513;BME280;27244;59.940;30.280;2023-02-04T07:09:21;101900.06;;;22.84;21.64
41513;BME280;27244;59.940;30.280;2023-02-04T07:11:48;101896.03;;;22.85;21.62
41513;BME280;27244;59.940;30.280;2023-02-04T07:14:17;101908.47;;;22.87;21.58
41513;BME280;27244;59.940;30.280;2023-02-04T07:16:44;101897.66;;;22.86;21.61
41513;BME280;27244;59.940;30.280;2023-02-04T07:19:11;101906.50;;;22.84;21.69
41513;BME280;27244;59.940;30.280;2023-02-04T07:21:38;101908.91;;;22.86;21.49
41513;BME280;27244;59.940;30.280;2023-02-04T07:24:05;101927.78;;;22.85;21.98
41513;BME280;27244;59.940;30.280;2023-02-04T07:26:35;101920.19;;;22.82;21.77
41513;BME280;27244;59.940;30.280;2023-02-04T07:29:02;101927.38;;;22.83;21.82
41513;BME280;27244;59.940;30.280;2023-02-04T07:31:31;101933.44;;;22.85;21.66
41513;BME280;27244;59.940;30.280;2023-02-04T07:33:57;101929.38;;;22.86;21.99
41513;BME280;27244;59.940;30.280;2023-02-04T07:36:24;101925.38;;;22.84;21.65
41513;BME280;27244;59.940;30.280;2023-02-04T07:38:51;101937.03;;;22.86;21.61
41513;BME280;27244;59.940;30.280;2023-02-04T07:41:18;101935.44;;;22.85;21.67
41513;BME280;27244;59.940;30.280;2023-02-04T07:43:46;101939.84;;;22.86;21.85
41513;BME280;27244;59.940;30.280;2023-02-04T07:46:13;101939.03;;;22.85;21.64
41513;BME280;27244;59.940;30.280;2023-02-04T07:48:41;101939.84;;;22.86;21.49
41513;BME280;27244;59.940;30.280;2023-02-04T07:51:08;101937.47;;;22.81;21.71
41513;BME280;27244;59.940;30.280;2023-02-04T07:53:35;101948.69;;;22.84;21.58
41513;BME280;27244;59.940;30.280;2023-02-04T07:56:03;101932.63;;;22.81;21.68
41513;BME280;27244;59.940;30.280;2023-02-04T07:58:30;101950.31;;;22.85;21.56
41513;BME280;27244;59.940;30.280;2023-02-04T08:00:57;101953.91;;;22.86;21.62
41513;BME280;27244;59.940;30.280;2023-02-04T08:03:24;101949.88;;;22.87;21.62
41513;BME280;27244;59.940;30.280;2023-02-04T08:05:52;101962.75;;;22.84;21.58
41513;BME280;27244;59.940;30.280;2023-02-04T08:08:19;101970.81;;;22.86;21.54
41513;BME280;27244;59.940;30.280;2023-02-04T08:10:46;101970.00;;;22.85;21.68
41513;BME280;27244;59.940;30.280;2023-02-04T08:13:13;101967.19;;;22.82;21.74
41513;BME280;27244;59.940;30.280;2023-02-04T08:15:40;101973.19;;;22.87;21.69
41513;BME280;27244;59.940;30.280;2023-02-04T08:18:07;101981.25;;;22.85;21.76
41513;BME280;27244;59.940;30.280;2023-02-04T08:20:34;101982.06;;;22.86;21.77
41513;BME280;27244;59.940;30.280;2023-02-04T08:23:02;101987.25;;;22.87;21.69
41513;BME280;27244;59.940;30.280;2023-02-04T08:25:29;101997.31;;;22.88;22.62
41513;BME280;27244;59.940;30.280;2023-02-04T08:27:58;101997.69;;;22.90;22.71
41513;BME280;27244;59.940;30.280;2023-02-04T08:30:25;102001.28;;;22.94;22.69
41513;BME280;27244;59.940;30.280;2023-02-04T08:32:52;102016.56;;;22.93;22.18
41513;BME280;27244;59.940;30.280;2023-02-04T08:35:19;102005.31;;;22.97;22.64
41513;BME280;27244;59.940;30.280;2023-02-04T08:37:46;102017.34;;;23.01;21.67
41513;BME280;27244;59.940;30.280;2023-02-04T08:40:14;102016.53;;;23.04;22.46
41513;BME280;27244;59.940;30.280;2023-02-04T08:42:41;102019.34;;;23.04;22.07
41513;BME280;27244;59.940;30.280;2023-02-04T08:45:08;102022.56;;;23.06;21.59
41513;BME280;27244;59.940;30.280;2023-02-04T08:47:35;102014.91;;;23.07;21.80
41513;BME280;27244;59.940;30.280;2023-02-04T08:50:02;102025.34;;;23.13;22.01
41513;BME280;27244;59.940;30.280;2023-02-04T08:52:29;102032.56;;;23.14;22.35
41513;BME280;27244;59.940;30.280;2023-02-04T08:54:56;102032.56;;;23.18;22.37
41513;BME280;27244;59.940;30.280;2023-02-04T08:57:25;102035.75;;;23.16;22.61
41513;BME280;27244;59.940;30.280;2023-02-04T08:59:51;102032.53;;;23.21;22.63
41513;BME280;27244;59.940;30.280;2023-02-04T09:02:18;102046.59;;;23.25;22.98
41513;BME280;27244;59.940;30.280;2023-02-04T09:04:45;102045.81;;;23.21;23.04
41513;BME280;27244;59.940;30.280;2023-02-04T09:07:12;102055.41;;;23.30;23.20
41513;BME280;27244;59.940;30.280;2023-02-04T09:09:39;102053.38;;;23.31;23.30
41513;BME280;27244;59.940;30.280;2023-02-04T09:12:06;102061.00;;;23.34;23.29
41513;BME280;27244;59.940;30.280;2023-02-04T09:14:34;102072.69;;;23.36;23.54
41513;BME280;27244;59.940;30.280;2023-02-04T09:17:01;102074.25;;;23.37;23.53
41513;BME280;27244;59.940;30.280;2023-02-04T09:19:30;102060.19;;;23.37;23.67
41513;BME280;27244;59.940;30.280;2023-02-04T09:21:57;102070.25;;;23.38;23.77
41513;BME280;27244;59.940;30.280;2023-02-04T09:24:24;102071.84;;;23.39;23.90
41513;BME280;27244;59.940;30.280;2023-02-04T09:26:51;102078.69;;;23.38;24.01
41513;BME280;27244;59.940;30.280;2023-02-04T09:29:17;102076.72;;;23.31;24.39
41513;BME280;27244;59.940;30.280;2023-02-04T09:31:46;102080.34;;;23.32;24.69
41513;BME280;27244;59.940;30.280;2023-02-04T09:34:13;102082.38;;;23.28;24.85
41513;BME280;27244;59.940;30.280;2023-02-04T09:36:40;102073.16;;;23.20;25.19
41513;BME280;27244;59.940;30.280;2023-02-04T09:39:07;102084.00;;;23.22;25.36
41513;BME280;27244;59.940;30.280;2023-02-04T09:41:35;102090.84;;;23.21;25.49
41513;BME280;27244;59.940;30.280;2023-02-04T09:44:09;102094.06;;;23.19;26.54
41513;BME280;27244;59.940;30.280;2023-02-04T09:46:37;102105.75;;;23.18;25.89
41513;BME280;27244;59.940;30.280;2023-02-04T09:49:08;102104.94;;;23.17;25.83
41513;BME280;27244;59.940;30.280;2023-02-04T09:51:36;102119.41;;;23.16;25.99
41513;BME280;27244;59.940;30.280;2023-02-04T09:54:06;102117.00;;;23.18;26.06
41513;BME280;27244;59.940;30.280;2023-02-04T09:56:34;102119.41;;;23.16;26.23
41513;BME280;27244;59.940;30.280;2023-02-04T09:59:03;102119.41;;;23.19;26.30
41513;BME280;27244;59.940;30.280;2023-02-04T10:01:30;102123.44;;;23.18;26.33
41513;BME280;27244;59.940;30.280;2023-02-04T10:03:59;102121.03;;;23.17;26.44
41513;BME280;27244;59.940;30.280;2023-02-04T10:06:29;102122.22;;;23.16;26.60
41513;BME280;27244;59.940;30.280;2023-02-04T10:08:56;102130.66;;;23.16;26.25
41513;BME280;27244;59.940;30.280;2023-02-04T10:11:24;102135.91;;;23.17;26.75
41513;BME280;27244;59.940;30.280;2023-02-04T10:13:53;102135.50;;;23.19;26.69
41513;BME280;27244;59.940;30.280;2023-02-04T10:16:28;102141.13;;;23.19;26.76
41513;BME280;27244;59.940;30.280;2023-02-04T10:18:56;102139.53;;;23.14;27.05
41513;BME280;27244;59.940;30.280;2023-02-04T10:21:27;102142.34;;;23.18;26.90
41513;BME280;27244;59.940;30.280;2023-02-04T10:23:56;102142.72;;;23.20;26.85
41513;BME280;27244;59.940;30.280;2023-02-04T10:26:26;102147.97;;;23.14;26.98
41513;BME280;27244;59.940;30.280;2023-02-04T10:28:58;102151.56;;;23.22;27.03
41513;BME280;27244;59.940;30.280;2023-02-04T10:31:34;102152.78;;;23.17;26.89
41513;BME280;27244;59.940;30.280;2023-02-04T10:34:08;102163.22;;;23.20;27.20
41513;BME280;27244;59.940;30.280;2023-02-04T10:36:36;102161.22;;;23.17;27.11
41513;BME280;27244;59.940;30.280;2023-02-04T10:39:08;102172.88;;;23.23;27.22
41513;BME280;27244;59.940;30.280;2023-02-04T10:41:36;102172.47;;;23.21;27.15
41513;BME280;27244;59.940;30.280;2023-02-04T10:44:06;102177.72;;;23.22;27.16
41513;BME280;27244;59.940;30.280;2023-02-04T10:46:35;102182.94;;;23.24;27.22
41513;BME280;27244;59.940;30.280;2023-02-04T10:49:03;102176.50;;;23.16;27.24
41513;BME280;27244;59.940;30.280;2023-02-04T10:51:31;102191.38;;;23.24;27.35
41513;BME280;27244;59.940;30.280;2023-02-04T10:54:01;102180.53;;;23.19;27.36
41513;BME280;27244;59.940;30.280;2023-02-04T10:56:47;102190.19;;;23.25;27.28
41513;BME280;27244;59.940;30.280;2023-02-04T10:59:21;102193.00;;;23.21;27.36
41513;BME280;27244;59.940;30.280;2023-02-04T11:01:51;102202.63;;;23.24;27.41
41513;BME280;27244;59.940;30.280;2023-02-04T11:04:18;102206.25;;;23.24;27.45
41513;BME280;27244;59.940;30.280;2023-02-04T11:06:45;102212.69;;;23.25;27.50
41513;BME280;27244;59.940;30.280;2023-02-04T11:09:12;102213.50;;;23.25;27.46
41513;BME280;27244;59.940;30.280;2023-02-04T11:11:44;102219.94;;;23.29;27.56
41513;BME280;27244;59.940;30.280;2023-02-04T11:14:25;102226.31;;;23.33;27.39
41513;BME280;27244;59.940;30.280;2023-02-04T11:16:56;102238.41;;;23.30;28.07
41513;BME280;27244;59.940;30.280;2023-02-04T11:19:33;102242.44;;;23.33;27.69
41513;BME280;27244;59.940;30.280;2023-02-04T11:22:06;102244.47;;;23.29;27.74
41513;BME280;27244;59.940;30.280;2023-02-04T11:24:33;102251.28;;;23.28;27.84
41513;BME280;27244;59.940;30.280;2023-02-04T11:27:17;102256.91;;;23.35;27.70
41513;BME280;27244;59.940;30.280;2023-02-04T11:29:46;102263.34;;;23.32;28.15
41513;BME280;27244;59.940;30.280;2023-02-04T11:32:28;102261.72;;;23.38;27.71
41513;BME280;27244;59.940;30.280;2023-02-04T11:35:06;102271.78;;;23.39;27.79
41513;BME280;27244;59.940;30.280;2023-02-04T11:37:36;102256.53;;;23.29;27.92
41513;BME280;27244;59.940;30.280;2023-02-04T11:40:25;102264.16;;;23.43;27.68
41513;BME280;27244;59.940;30.280;2023-02-04T11:42:57;102267.34;;;23.38;27.92
41513;BME280;27244;59.940;30.280;2023-02-04T11:45:29;102271.81;;;23.35;28.15
41513;BME280;27244;59.940;30.280;2023-02-04T11:47:58;102272.19;;;23.34;28.08
41513;BME280;27244;59.940;30.280;2023-02-04T11:50:28;102278.25;;;23.36;27.99
41513;BME280;27244;59.940;30.280;2023-02-04T11:52:57;102285.06;;;23.31;28.00
41513;BME280;27244;59.940;30.280;2023-02-04T11:55:25;102283.88;;;23.36;28.11
41513;BME280;27244;59.940;30.280;2023-02-04T11:57:53;102290.31;;;23.36;28.10
41513;BME280;27244;59.940;30.280;2023-02-04T12:00:22;102296.31;;;23.38;28.13
41513;BME280;27244;59.940;30.280;2023-02-04T12:02:56;102294.31;;;23.39;28.01
41513;BME280;27244;59.940;30.280;2023-02-04T12:05:35;102316.88;;;23.42;27.72
41513;BME280;27244;59.940;30.280;2023-02-04T12:08:12;102316.06;;;23.42;27.91
41513;BME280;27244;59.940;30.280;2023-02-04T12:10:47;102318.88;;;23.42;27.97
41513;BME280;27244;59.940;30.280;2023-02-04T12:13:20;102314.41;;;23.41;28.07
41513;BME280;27244;59.940;30.280;2023-02-04T12:15:54;102332.97;;;23.42;28.12
41513;BME280;27244;59.940;30.280;2023-02-04T12:18:25;102328.09;;;23.39;28.16
41513;BME280;27244;59.940;30.280;2023-02-04T12:20:53;102332.56;;;23.36;28.15
41513;BME280;27244;59.940;30.280;2023-02-04T12:23:20;102340.56;;;23.38;28.23
41513;BME280;27244;59.940;30.280;2023-02-04T12:25:47;102334.94;;;23.34;28.22
41513;BME280;27244;59.940;30.280;2023-02-04T12:28:14;102343.00;;;23.36;28.34
41513;BME280;27244;59.940;30.280;2023-02-04T12:30:41;102357.47;;;23.38;28.21
41513;BME280;27244;59.940;30.280;2023-02-04T12:33:08;102352.66;;;23.38;28.30
41513;BME280;27244;59.940;30.280;2023-02-04T12:35:37;102365.09;;;23.41;28.36
41513;BME280;27244;59.940;30.280;2023-02-04T12:38:05;102365.09;;;23.41;28.21
41513;BME280;27244;59.940;30.280;2023-02-04T12:40:32;102374.41;;;23.41;28.28
41513;BME280;27244;59.940;30.280;2023-02-04T12:42:59;102382.47;;;23.43;28.22
41513;BME280;27244;59.940;30.280;2023-02-04T12:45:26;102380.84;;;23.42;28.31